aviador You're here:

KLKR Decoded Metar

LANCASTER in SC, USA
Report Time2017-07-23 06:55:00
UTC Time2017-07-23 06:52:12
Flight Rules vfr VFR
Wind220° at 04 kt
W.Decomp.*RWY 24: 3.9 kt HW 0.9 kt LCW
W.Rank220° ranks 5
Current wind is below 220° avg. (5.5)
Visibility9999 m
Phenomena:N/A
Clouds:N/A
Expected CloudBase > 400 ft AGL from Temp-Dew spread
CeilingNone
Temp25°C (ISA +11)
Dew Point24°C (94% RH)
QNH1013 hPa
Density Alt2,152 ft
Elevation489 ft
Report Wrong Elevation
Raw Report
KLKR 230655Z AUTO 22004KT 9SM CLR 25/24 A2991 RMK AO2=

Extra information for KLKR:More info

Metar Taf Metar & Taf Last 4 Metars F.Rules Stats Wind Profile Meteogram Temp Stats Airport Information Weather charts Add Link Nearby VenuesMetar ALERT Operation Metar Decoded Social comments

AIRNAV info for KLKR